M I D A S
Marine Information and Data Acquisition System
Tripno 1736 of the Zeeleeuw from 2009-07-22 06:57:50 to 2009-07-22 14:39:28
Back to CruiseResearch ActivitiesStationsMapUnderway DataData graphs

EquipmentUnitsComment
TimeDGPSUTC
LatitudeDGPSDM.mWGS84
LongitudeDGPSDM.mWGS84
TemperatureSBE03/SBE38deg celciusITS90
ConductivitySBE21S/mITS90
SalinitySBE21 Practical Salinity Units
ChlorophylAChelsea fluorimeterg/lCalibrated in Aceton
Missing or incorrect values are displayed as -999
Sea surface data collected by the RV Zeeleeuw from 2009-07-22 06:56:46 to 2009-07-22 15:28:27
Time Latitude Longitude Temperature Conductivity Salinity ChlorophylA
2009-07-22 06:57:51 51°13.662 2°55.96 20.6904 0.055277 0.293341 3.909623
2009-07-22 06:58:51 51°13.66 2°55.959 20.7 0.055277 0.293311 3.874799
2009-07-22 06:59:51 51°13.659 2°55.961 20.7015 0.055277 0.293271 3.874799
2009-07-22 07:00:51 51°13.661 2°55.96 20.7026 0.055277 0.293241 3.874799
2009-07-22 07:01:51 51°13.66 2°55.962 20.7299 0.055277 0.293211 3.874799
2009-07-22 07:02:51 51°13.662 2°55.961 20.7277 0.055277 0.293172 3.874799
2009-07-22 07:03:51 51°13.661 2°55.96 20.7274 0.055277 0.293137 3.839975
2009-07-22 07:04:51 51°13.662 2°55.96 20.7249 0.055277 0.293102 3.874799
2009-07-22 07:05:51 51°13.661 2°55.959 20.6669 0.055277 0.293043 3.839975
2009-07-22 07:06:51 51°13.676 2°55.906 20.7137 0.055277 0.292914 3.874799
2009-07-22 07:07:51 51°13.692 2°55.812 20.7377 0.055277 0.292894 3.874799
2009-07-22 07:08:50 51°13.692 2°55.753 20.7523 0.05538 0.293448 3.874799
2009-07-22 07:09:48 51°13.694 2°55.753 20.7367 0.05538 0.293314 3.909623
2009-07-22 07:10:48 51°13.725 2°55.734 20.7386 0.05538 0.293305 3.944447
2009-07-22 07:11:48 51°13.817 2°55.646 20.7154 0.05538 0.293275 3.909623
2009-07-22 07:12:47 51°13.943 2°55.547 20.7319 0.05538 0.293245 3.909623
2009-07-22 07:13:47 51°14.083 2°55.446 20.7547 0.05538 0.293215 3.909623
2009-07-22 07:14:48 51°14.219 2°55.313 20.7564 0.05538 0.293181 3.909623
2009-07-22 07:15:48 51°14.333 2°55.119 20.7763 0.05538 0.293126 3.874799
2009-07-22 07:16:48 51°14.424 2°54.871 20.7591 0.05538 0.293067 3.909623
2009-07-22 07:17:47 51°14.507 2°54.603 20.7555 0.055483 0.293536 4.014096
2009-07-22 07:18:48 51°14.619 2°54.354 20.7607 0.055483 0.293343 5.441882
2009-07-22 07:19:47 51°14.77 2°54.194 20.724 0.055483 0.293363 4.815049
2009-07-22 07:20:48 51°14.928 2°54.032 20.7401 0.055483 0.293408 5.198113
2009-07-22 07:21:48 51°15.085 2°53.881 20.741 0.055483 0.293353 5.128465
2009-07-22 07:22:48 51°15.242 2°53.732 20.7077 0.055483 0.293323 6.208011
2009-07-22 07:23:47 51°15.396 2°53.583 20.7252 0.055483 0.293244 5.302586
2009-07-22 07:24:47 51°15.552 2°53.429 20.7422 0.055483 0.293294 6.730372
2009-07-22 07:25:48 51°15.714 2°53.28 20.7322 0.055483 0.293234 8.123334
2009-07-22 07:26:48 51°15.879 2°53.155 20.7467 0.055483 0.29318 7.043788
2009-07-22 07:27:48 51°16.043 2°53.032 20.7386 0.055483 0.29322 8.367102
2009-07-22 07:28:47 51°16.205 2°52.91 20.7453 0.055586 0.293708 8.750167
2009-07-22 07:29:48 51°16.372 2°52.786 20.7365 0.055586 0.293619 6.486603
2009-07-22 07:30:48 51°16.54 2°52.678 20.761 0.055586 0.293604 9.864537
2009-07-22 07:31:48 51°16.707 2°52.579 20.7431 0.055586 0.293594 6.730372
2009-07-22 07:32:48 51°16.874 2°52.487 20.7787 0.055586 0.293525 9.028759
2009-07-22 07:33:47 51°17.034 2°52.389 20.7728 0.055586 0.293486 10.456545
2009-07-22 07:34:47 51°17.199 2°52.291 20.7903 0.055586 0.293456 9.168055
2009-07-22 07:35:48 51°17.366 2°52.191 20.8012 0.055586 0.293387 6.939316
2009-07-22 07:36:48 51°17.523 2°52.064 20.814 0.055586 0.293333 6.939316
2009-07-22 07:37:48 51°17.665 2°51.896 20.8137 0.055586 0.293308 8.158158
2009-07-22 07:38:47 51°17.802 2°51.718 20.8333 0.055586 0.293264 8.297454
2009-07-22 07:39:48 51°17.945 2°51.536 20.8256 0.055586 0.293224 8.959111
2009-07-22 07:40:48 51°18.089 2°51.357 20.8474 0.055586 0.29318 10.282425
2009-07-22 07:41:47 51°18.23 2°51.183 20.8515 0.055586 0.293126 13.381766
2009-07-22 07:42:47 51°18.373 2°51.003 20.8566 0.055586 0.293091 8.192982
2009-07-22 07:43:47 51°18.512 2°50.814 20.8724 0.055586 0.293032 7.426853
2009-07-22 07:44:47 51°18.648 2°50.62 20.8818 0.055688 0.293549 7.670621
2009-07-22 07:45:48 51°18.786 2°50.421 20.8842 0.055688 0.29351 8.123334
2009-07-22 07:46:48 51°18.923 2°50.225 20.9058 0.055688 0.293436 8.576047
2009-07-22 07:47:47 51°19.06 2°50.036 20.9142 0.055688 0.293387 7.775093
2009-07-22 07:48:48 51°19.202 2°49.841 20.9144 0.055688 0.293352 7.91439
2009-07-22 07:49:47 51°19.343 2°49.65 20.9337 0.055688 0.293318 10.561018
2009-07-22 07:50:48 51°19.487 2°49.452 20.9421 0.055688 0.293288 11.710211
2009-07-22 07:51:47 51°19.624 2°49.256 20.9473 0.055688 0.293239 8.26263
2009-07-22 07:52:48 51°19.763 2°49.051 20.9673 0.055688 0.293195 8.401926
2009-07-22 07:53:47 51°19.898 2°48.849 20.9725 0.055688 0.29316 8.506398
2009-07-22 07:54:48 51°20.038 2°48.641 20.9756 0.055688 0.293121 8.610871
2009-07-22 07:55:48 51°20.175 2°48.435 20.9925 0.055688 0.293072 12.337044
2009-07-22 07:56:48 51°20.312 2°48.229 21.0064 0.055688 0.293042 8.924287
2009-07-22 07:57:48 51°20.449 2°48.023 21.0107 0.055688 0.293008 8.993935
2009-07-22 07:58:48 51°20.587 2°47.82 21.0269 0.055688 0.292969 9.063583
2009-07-22 07:59:48 51°20.725 2°47.619 21.0368 0.055688 0.292935 13.103174
2009-07-22 08:00:48 51°20.866 2°47.415 21.0397 0.055688 0.292886 12.441517
2009-07-22 08:01:48 51°21.007 2°47.208 19.3937 0.056718 0.298279 12.232572
2009-07-22 08:02:48 51°21.149 2°47.002 18.4537 4.554376 33.712649 8.43675
2009-07-22 08:03:48 51°21.293 2°46.799 18.3383 4.581901 34.389539 7.949214
2009-07-22 08:04:48 51°21.435 2°46.598 18.2751 4.580241 34.474005 7.879566
2009-07-22 08:05:48 51°21.578 2°46.397 18.2289 4.576192 34.49889 8.018862
2009-07-22 08:06:48 51°21.72 2°46.2 18.1849 4.57557 34.54421 8.43675
2009-07-22 08:07:48 51°21.863 2°46.001 18.1623 4.573909 34.560171 8.993935
2009-07-22 08:08:48 51°22.006 2°45.798 18.144 4.574429 34.58528 9.377
2009-07-22 08:09:48 51°22.148 2°45.598 18.122 4.568095 34.54899 9.655592
2009-07-22 08:10:48 51°22.29 2°45.398 18.1119 4.568511 34.567221 9.864537
2009-07-22 08:11:48 51°22.431 2°45.196 18.091 4.567265 34.574055 10.108305
2009-07-22 08:12:48 51°22.572 2°44.994 18.0782 4.568719 34.599117 10.282425
2009-07-22 08:13:48 51°22.712 2°44.789 18.0685 4.567681 34.601031 10.456545
2009-07-22 08:14:48 51°22.851 2°44.582 18.0586 4.566746 34.602488 10.595842
2009-07-22 08:15:48 51°22.988 2°44.374 18.0502 4.565916 34.605499 10.735138
2009-07-22 08:16:48 51°23.13 2°44.167 18.0481 4.56467 34.600286 10.909258
2009-07-22 08:17:48 51°23.271 2°43.958 18.0465 4.564462 34.601878 11.048554
2009-07-22 08:18:48 51°23.413 2°43.751 18.0396 4.563216 34.595321 11.153027
2009-07-22 08:19:48 51°23.555 2°43.542 18.036 4.564047 34.604392 11.257499
2009-07-22 08:20:48 51°23.699 2°43.338 18.0281 4.56332 34.602917 11.361971
2009-07-22 08:21:48 51°23.844 2°43.138 18.0154 4.562697 34.605683 11.431619
2009-07-22 08:22:48 51°23.991 2°42.942 17.9892 4.559894 34.594618 11.536091
2009-07-22 08:23:48 51°24.142 2°42.761 17.9586 4.550757 34.536409 11.501267
2009-07-22 08:24:48 51°24.296 2°42.586 17.9252 4.556884 34.615414 11.466443
2009-07-22 08:25:48 51°24.451 2°42.42 17.8997 4.552004 34.60013 11.396795
2009-07-22 08:26:48 51°24.606 2°42.257 17.8817 4.550239 34.607333 11.327147
2009-07-22 08:27:48 51°24.759 2°42.096 17.8717 4.552108 34.638109 11.292323
2009-07-22 08:28:48 51°24.919 2°41.952 17.8693 4.552939 34.652622 11.292323
2009-07-22 08:29:48 51°25.079 2°41.809 17.8734 4.552628 34.650641 11.431619
2009-07-22 08:30:48 51°25.231 2°41.637 17.8767 4.552628 34.647263 11.466443
2009-07-22 08:31:48 51°25.377 2°41.447 17.8777 4.552731 34.645446 11.536091
2009-07-22 08:32:48 51°25.51 2°41.23 17.8739 4.552108 34.64081 11.605739
2009-07-22 08:33:48 51°25.619 2°40.973 17.8674 4.552212 34.646423 11.640563
2009-07-22 08:34:48 51°25.718 2°40.701 17.8529 4.552005 34.651409 11.675387
2009-07-22 08:35:48 51°25.817 2°40.428 17.8444 4.55107 34.652901 11.745035
2009-07-22 08:36:48 51°25.92 2°40.159 17.8372 4.550448 34.655024 11.77986
2009-07-22 08:37:48 51°26.041 2°39.916 17.8206 4.549617 34.656052 11.849508
2009-07-22 08:38:48 51°26.165 2°39.678 17.7937 4.548371 34.660303 11.95398
2009-07-22 08:39:48 51°26.297 2°39.459 17.7727 4.54588 34.661368 12.093276
2009-07-22 08:40:48 51°26.422 2°39.234 17.7592 4.543596 34.660146 12.162924
2009-07-22 08:41:48 51°26.514 2°38.964 17.7515 4.542557 34.659406 12.267396
2009-07-22 08:42:48 51°26.595 2°38.678 17.7457 4.542142 34.663315 12.371868
2009-07-22 08:43:48 51°26.679 2°38.395 17.7398 4.541312 34.660282 12.476341
2009-07-22 08:44:48 51°26.798 2°38.168 17.7285 4.541208 34.664822 12.545989
2009-07-22 08:45:48 51°26.944 2°37.989 17.7189 4.54017 34.664084 12.650461
2009-07-22 08:46:48 51°27.088 2°37.809 17.7085 4.538405 34.658487 12.720109
2009-07-22 08:47:48 51°27.232 2°37.626 17.6918 4.53799 34.665118 12.789757
2009-07-22 08:48:48 51°27.375 2°37.44 17.683 4.537471 34.672903 12.859405
2009-07-22 08:49:48 51°27.518 2°37.253 17.6754 4.53529 34.66307 12.963877
2009-07-22 08:50:48 51°27.66 2°37.068 17.664 4.535914 34.675203 13.033525
2009-07-22 08:51:48 51°27.803 2°36.882 17.6562 4.535498 34.678447 13.137998
2009-07-22 08:52:48 51°27.945 2°36.693 17.6512 4.532903 34.662332 13.24247
2009-07-22 08:53:48 51°28.087 2°36.505 17.6452 4.534772 34.683788 13.312118
2009-07-22 08:54:48 51°28.227 2°36.314 17.6313 4.531553 34.663691 13.41659
2009-07-22 08:55:48 51°28.37 2°36.118 17.6207 4.53363 34.691021 13.521062
2009-07-22 08:56:48 51°28.518 2°35.943 17.6096 4.533526 34.698307 13.59071
2009-07-22 08:57:48 51°28.686 2°35.878 17.6021 4.533007 34.703398 13.660358
2009-07-22 08:58:48 51°28.846 2°35.947 17.5956 4.53228 34.702619 13.764831
2009-07-22 08:59:48 51°29.007 2°36.03 17.5876 4.531761 34.703621 13.834479
2009-07-22 09:00:48 51°29.171 2°36.098 17.5875 4.530308 34.695924 13.904127
2009-07-22 09:01:48 51°29.334 2°36.171 17.5817 4.529477 34.692207 13.973775
2009-07-22 09:02:48 51°29.497 2°36.246 17.5774 4.530723 34.705628 14.043423
2009-07-22 09:03:48 51°29.663 2°36.322 17.5743 4.528543 34.691009 14.113071
2009-07-22 09:04:48 51°29.824 2°36.399 17.5724 4.527712 34.687291 14.182719
2009-07-22 09:05:48 51°29.987 2°36.471 17.5684 4.529581 34.703333 14.252367
2009-07-22 09:06:48 51°30.15 2°36.548 17.5669 4.529166 34.70318 14.287191
2009-07-22 09:07:48 51°30.311 2°36.627 17.566 4.528958 34.702763 14.391664
2009-07-22 09:08:48 51°30.473 2°36.702 17.5635 4.528958 34.703446 14.461312
2009-07-22 09:09:48 51°30.635 2°36.78 17.5626 4.528958 34.703446 14.496136
2009-07-22 09:10:48 51°30.798 2°36.858 17.5635 4.528958 34.704128 14.53096
2009-07-22 09:11:48 51°30.96 2°36.934 17.5625 4.528958 34.705494 14.635432
2009-07-22 09:12:48 51°31.121 2°37.009 17.5613 4.528855 34.705968 14.670256
2009-07-22 09:13:48 51°31.282 2°37.085 17.5602 4.528855 34.706651 14.739904
2009-07-22 09:14:48 51°31.443 2°37.16 17.5633 4.528958 34.706859 14.774728
2009-07-22 09:15:48 51°31.606 2°37.236 17.5617 4.529166 34.708642 14.8792
2009-07-22 09:16:48 51°31.768 2°37.316 17.5607 4.52927 34.710216 14.914024
2009-07-22 09:17:48 51°31.928 2°37.402 17.5639 4.529374 34.710425 14.983672
2009-07-22 09:18:48 51°32.087 2°37.491 17.5685 4.528647 34.701454 15.018497
2009-07-22 09:19:48 51°32.247 2°37.579 17.571 4.529997 34.709628 15.088145
2009-07-22 09:20:48 51°32.408 2°37.666 17.5764 4.5301 34.707789 15.122969
2009-07-22 09:21:48 51°32.57 2°37.759 17.5809 4.530204 34.70595 15.192617
2009-07-22 09:22:48 51°32.731 2°37.85 17.5842 4.530516 34.703846 15.262265
2009-07-22 09:23:48 51°32.891 2°37.944 17.5876 4.530723 34.703581 15.297089
2009-07-22 09:24:48 51°33.053 2°38.035 17.589 4.530931 34.701952 15.366737
2009-07-22 09:25:48 51°33.215 2°38.125 17.5909 4.530931 34.70127 15.401561
2009-07-22 09:26:48 51°33.377 2°38.211 17.5906 4.531242 34.701214 15.436385
2009-07-22 09:27:48 51°33.539 2°38.299 17.5922 4.531138 34.701687 15.506033
2009-07-22 09:28:48 51°33.701 2°38.388 17.5911 4.531346 34.701422 15.540857
2009-07-22 09:29:48 51°33.863 2°38.478 17.5849 4.530827 34.700379 15.610505
2009-07-22 09:30:48 51°34.026 2°38.564 17.5864 4.530931 34.701952 15.645329
2009-07-22 09:31:48 51°34.191 2°38.639 17.5884 4.530619 34.696551 15.680154
2009-07-22 09:32:48 51°34.356 2°38.718 17.5883 4.530723 34.69676 15.749802
2009-07-22 09:33:48 51°34.522 2°38.803 17.5853 4.527608 34.672763 15.784626
2009-07-22 09:34:48 51°34.687 2°38.886 17.5836 4.531139 34.704416 15.81945
2009-07-22 09:35:48 51°34.853 2°38.969 17.5782 4.531035 34.706254 15.889098
2009-07-22 09:36:48 51°35.018 2°39.05 17.573 4.53062 34.707467 15.923922
2009-07-22 09:37:48 51°35.185 2°39.13 17.5701 4.530204 34.707997 15.958746
2009-07-22 09:38:48 51°35.351 2°39.21 17.5654 4.5301 34.709837 15.99357
2009-07-22 09:39:48 51°35.518 2°39.29 17.552 4.529478 34.711316 16.028394
2009-07-22 09:40:48 51°35.683 2°39.375 17.5452 4.528647 34.713063 16.063218
2009-07-22 09:41:48 51°35.85 2°39.459 17.5404 4.528128 34.71407 16.132866
2009-07-22 09:42:48 51°36.014 2°39.543 17.5377 4.528024 34.714545 16.16769
2009-07-22 09:43:48 51°36.18 2°39.619 17.5361 4.527713 34.714603 16.202514
2009-07-22 09:44:48 51°36.346 2°39.701 17.5323 4.527505 34.71692 16.237338
2009-07-22 09:45:48 51°36.512 2°39.786 17.5272 4.527609 34.718495 16.272162
2009-07-22 09:46:48 51°36.679 2°39.87 17.5263 4.527194 34.719029 16.306987
2009-07-22 09:47:48 51°36.846 2°39.952 17.5226 4.52709 34.719504 16.341811
2009-07-22 09:48:48 51°37.013 2°40.034 17.5214 4.526986 34.719979 16.376635
2009-07-22 09:49:48 51°37.18 2°40.115 17.5181 4.526882 34.720455 16.446283
2009-07-22 09:50:48 51°37.347 2°40.197 17.5168 3.573985 26.686035 16.446283
2009-07-22 09:51:48 51°37.514 2°40.28 17.5142 4.52574 34.714743 16.515931
2009-07-22 09:52:48 51°37.68 2°40.364 17.5115 4.525325 34.713909 16.515931
2009-07-22 09:53:48 51°37.849 2°40.446 17.5103 4.525325 34.715277 16.585579
2009-07-22 09:54:48 51°38.015 2°40.53 17.512 4.524598 34.709031 16.585579
2009-07-22 09:55:48 51°38.181 2°40.61 17.5101 4.524598 34.710398 16.620403
2009-07-22 09:56:48 51°38.346 2°40.687 17.5165 4.524702 34.709923 16.690051
2009-07-22 09:57:48 51°38.511 2°40.761 17.5192 4.525325 34.713225 16.724875
2009-07-22 09:58:48 51°38.673 2°40.841 17.5176 4.527298 34.728127 16.759699
2009-07-22 09:59:48 51°38.835 2°40.928 17.5141 4.527505 34.729228 16.794523
2009-07-22 10:00:48 51°38.995 2°41.022 17.5178 4.527505 34.730596 16.829347
2009-07-22 10:01:48 51°39.155 2°41.114 17.5242 4.527817 34.730536 16.829347
2009-07-22 10:02:48 51°39.316 2°41.209 17.5241 4.528232 34.731369 16.864171
2009-07-22 10:03:48 51°39.477 2°41.3 17.5316 4.528647 34.731518 16.898995
2009-07-22 10:04:48 51°39.64 2°41.392 17.5368 4.529167 34.731191 16.933819
2009-07-22 10:05:48 51°39.802 2°41.49 17.5431 4.529789 34.731757 16.968644
2009-07-22 10:06:48 51°39.964 2°41.587 17.5496 4.530724 34.732947 17.003468
2009-07-22 10:07:48 51°40.127 2°41.681 17.5571 4.531554 34.733929 17.038292
2009-07-22 10:08:48 51°40.289 2°41.779 17.5657 4.532073 34.734287 17.073116
2009-07-22 10:09:48 51°40.452 2°41.874 17.5652 4.532696 34.734853 17.10794
2009-07-22 10:10:48 51°40.613 2°41.966 17.5709 4.533215 34.73521 17.142764
2009-07-22 10:11:48 51°40.773 2°42.068 17.5789 4.533734 34.735568 17.177588
2009-07-22 10:12:48 51°40.935 2°42.162 17.5901 4.534669 34.73471 17.212412
2009-07-22 10:13:48 51°41.097 2°42.262 17.595 4.535395 34.734119 17.247236
2009-07-22 10:14:48 51°41.259 2°42.358 17.601 4.536018 34.733321 17.28206
2009-07-22 10:15:48 51°41.421 2°42.46 17.6074 4.536226 34.73169 17.28206
2009-07-22 10:16:48 51°41.584 2°42.555 17.6149 4.536745 34.731367 17.351708
2009-07-22 10:17:48 51°41.746 2°42.654 17.6176 4.536953 34.728372 17.351708
2009-07-22 10:18:48 51°41.908 2°42.749 17.6227 4.536433 34.72051 17.386532
2009-07-22 10:19:48 51°42.071 2°42.847 17.6225 4.535707 34.711551 17.421356
2009-07-22 10:20:48 51°42.232 2°42.947 17.6253 4.53581 34.711078 17.491004
2009-07-22 10:21:48 51°42.395 2°43.046 17.626 4.536433 34.715056 17.525828
2009-07-22 10:22:48 51°42.556 2°43.149 17.629 4.536433 34.713693 17.525828
2009-07-22 10:23:48 51°42.71 2°43.277 17.6288 4.536329 34.709395 17.560652
2009-07-22 10:24:48 51°42.825 2°43.494 17.6357 4.536018 34.707406 17.630301
2009-07-22 10:25:48 51°42.932 2°43.723 17.6351 4.53581 34.702219 17.630301
2009-07-22 10:26:48 51°43.036 2°43.954 17.6373 4.53581 34.700176 17.699949
2009-07-22 10:27:48 51°43.102 2°44.216 17.6391 4.535914 34.695617 17.734773
2009-07-22 10:28:48 51°43.08 2°44.505 17.6463 4.535602 34.692267 17.804421
2009-07-22 10:29:48 51°43.032 2°44.797 17.6481 4.535602 34.688183 17.839245
2009-07-22 10:30:48 51°42.976 2°45.086 17.6561 4.535395 34.680279 17.839245
2009-07-22 10:31:48 51°42.861 2°45.327 17.6648 4.535602 34.675935 17.908893
2009-07-22 10:32:48 51°42.719 2°45.527 17.673 4.536329 34.67468 17.978541
2009-07-22 10:33:48 51°42.556 2°45.676 17.6823 4.536744 34.672118 18.013365
2009-07-22 10:34:48 51°42.375 2°45.741 17.6952 4.537678 34.669924 18.083013
2009-07-22 10:35:48 51°42.195 2°45.676 17.7041 4.538509 34.669561 18.117837
2009-07-22 10:36:48 51°42.022 2°45.565 17.7154 4.539443 34.668049 18.152661
2009-07-22 10:37:48 51°41.842 2°45.468 17.7288 4.540274 34.667009 18.187485
2009-07-22 10:38:48 51°41.662 2°45.382 17.7338 4.541208 34.666858 18.222309
2009-07-22 10:39:48 51°41.483 2°45.288 17.7424 4.541831 34.666757 18.257134
2009-07-22 10:40:48 51°41.306 2°45.193 17.7497 4.542661 34.666397 18.257134
2009-07-22 10:41:48 51°41.13 2°45.097 17.754 4.543284 34.666298 18.291958
2009-07-22 10:42:48 51°40.953 2°45.001 17.7541 4.5437 34.667135 18.326782
2009-07-22 10:43:48 51°40.775 2°44.912 17.7559 4.544011 34.668442 18.361606
2009-07-22 10:44:48 51°40.598 2°44.811 17.7566 4.544323 34.66907 18.361606
2009-07-22 10:45:48 51°40.425 2°44.703 17.7586 4.544634 34.669698 18.39643
2009-07-22 10:46:48 51°40.253 2°44.592 17.7563 4.544842 34.671473 18.39643
2009-07-22 10:47:48 51°40.083 2°44.485 17.755 4.544842 34.673508 18.431254
2009-07-22 10:48:48 51°39.912 2°44.379 17.7549 4.544946 34.675074 18.431254
2009-07-22 10:49:48 51°39.74 2°44.27 17.7579 4.544946 34.675752 18.466078
2009-07-22 10:50:48 51°39.569 2°44.164 17.7545 4.545361 34.677946 18.466078
2009-07-22 10:51:48 51°39.398 2°44.058 17.7502 4.545257 34.679771 18.466078
2009-07-22 10:52:48 51°39.228 2°43.953 17.744 4.545049 34.682067 18.500902
2009-07-22 10:53:48 51°39.057 2°43.846 17.7405 4.544738 34.682796 18.500902
2009-07-22 10:54:48 51°38.888 2°43.739 17.7357 4.544427 34.684205 18.535726
2009-07-22 10:55:48 51°38.72 2°43.637 17.7281 4.544323 34.685353 18.535726
2009-07-22 10:56:48 51°38.551 2°43.532 17.7271 4.544011 34.686762 18.535726
2009-07-22 10:57:48 51°38.382 2°43.424 17.7283 4.544011 34.68812 18.535726
2009-07-22 10:58:48 51°38.214 2°43.32 17.723 4.544011 34.689478 18.535726
2009-07-22 10:59:48 51°38.047 2°43.219 17.7189 4.543804 34.692456 18.535726
2009-07-22 11:00:48 51°37.879 2°43.115 17.7111 4.543596 34.694755 18.535726
2009-07-22 11:01:48 51°37.712 2°43.01 17.7081 4.543285 34.697525 18.57055
2009-07-22 11:02:48 51°37.546 2°42.905 17.6989 4.543181 34.700715 18.57055
2009-07-22 11:03:48 51°37.379 2°42.801 17.6893 4.542766 34.704638 18.57055
2009-07-22 11:04:48 51°37.213 2°42.702 17.6779 4.542039 34.708618 18.535726
2009-07-22 11:05:48 51°37.047 2°42.594 17.6606 4.541209 34.713072 18.535726
2009-07-22 11:06:48 51°36.883 2°42.49 17.6485 4.540274 34.716641 18.535726
2009-07-22 11:07:48 51°36.72 2°42.39 17.6295 4.539444 34.719059 18.535726
2009-07-22 11:08:48 51°36.553 2°42.288 17.6101 4.537472 34.721913 18.535726
2009-07-22 11:09:48 51°36.388 2°42.184 17.5969 4.535707 34.721779 18.57055
2009-07-22 11:10:48 51°36.224 2°42.083 17.5873 4.534669 34.722423 18.57055
2009-07-22 11:11:48 51°36.062 2°41.985 17.5842 4.533838 34.718709 18.57055
2009-07-22 11:12:48 51°35.9 2°41.883 17.5842 4.533319 34.717666 18.605374
2009-07-22 11:13:48 51°35.741 2°41.786 17.5825 4.533215 34.716093 18.605374
2009-07-22 11:14:48 51°35.581 2°41.69 17.5899 4.533111 34.71452 18.640198
2009-07-22 11:15:48 51°35.422 2°41.592 17.5966 4.533215 34.712 18.640198
2009-07-22 11:16:48 51°35.262 2°41.497 17.601 4.533734 34.710996 18.605374
2009-07-22 11:17:48 51°35.105 2°41.402 17.609 4.534045 34.710258 18.640198
2009-07-22 11:18:48 51°34.948 2°41.309 17.6133 4.534564 34.709256 18.640198
2009-07-22 11:19:48 51°34.791 2°41.214 17.618 4.534876 34.708518 18.675022
2009-07-22 11:20:48 51°34.634 2°41.123 17.6232 4.535395 34.707517 18.675022
2009-07-22 11:21:48 51°34.48 2°41.031 17.6273 4.535706 34.70678 18.709846
2009-07-22 11:22:48 51°34.327 2°40.94 17.6305 4.536122 34.705571 18.74467
2009-07-22 11:23:48 51°34.174 2°40.849 17.6417 4.536433 34.704834 18.709846
2009-07-22 11:24:48 51°34.024 2°40.758 17.6469 4.53716 34.704252 18.779494
2009-07-22 11:25:48 51°33.87 2°40.664 17.6497 4.537471 34.704197 18.779494
2009-07-22 11:26:48 51°33.715 2°40.574 17.6593 4.53799 34.701837 18.779494
2009-07-22 11:27:48 51°33.562 2°40.484 17.664 4.538717 34.701937 18.814318
2009-07-22 11:28:48 51°33.411 2°40.397 17.6727 4.53934 34.701829 18.814318
2009-07-22 11:29:48 51°33.259 2°40.306 17.6801 4.54017 34.701458 18.814318
2009-07-22 11:30:48 51°33.105 2°40.239 17.683 4.540897 34.701559 18.814318
2009-07-22 11:31:48 51°32.938 2°40.293 17.6794 4.537782 34.673531 18.849142
2009-07-22 11:32:48 51°32.771 2°40.381 17.6629 4.540378 34.702556 18.849142
2009-07-22 11:33:48 51°32.602 2°40.467 17.6525 4.539444 34.703399 18.883966
2009-07-22 11:34:48 51°32.434 2°40.555 17.647 4.538406 34.707438 18.883966
2009-07-22 11:35:48 51°32.298 2°40.716 17.6367 4.538094 34.710898 18.883966
2009-07-22 11:36:48 51°32.286 2°41.02 17.6355 4.537679 34.71347 18.883966
2009-07-22 11:37:48 51°32.342 2°41.333 17.6324 4.537991 34.715458 18.883966
2009-07-22 11:38:48 51°32.467 2°41.592 17.6396 4.537783 34.711635 18.883966
2009-07-22 11:39:48 51°32.645 2°41.756 17.653 4.53799 34.709327 18.918791
2009-07-22 11:40:48 51°32.829 2°41.901 17.6586 4.538925 34.709162 18.883966
2009-07-22 11:41:48 51°33.015 2°42.048 17.6585 4.539444 34.708844 18.918791
2009-07-22 11:42:48 51°33.2 2°42.199 17.6592 4.539444 34.708163 18.918791
2009-07-22 11:43:48 51°33.387 2°42.344 17.6645 4.539548 34.708372 18.918791
2009-07-22 11:44:48 51°33.572 2°42.496 17.662 4.539963 34.709207 18.953615
2009-07-22 11:45:48 51°33.755 2°42.651 17.6629 4.540067 34.710096 18.953615
2009-07-22 11:46:48 51°33.939 2°42.8 17.6607 4.539963 34.712611 18.988439
2009-07-22 11:47:48 51°34.123 2°42.95 17.6591 4.539963 34.713291 18.988439
2009-07-22 11:48:48 51°34.309 2°43.097 17.6604 4.540274 34.714598 18.988439
2009-07-22 11:49:48 51°34.496 2°43.237 17.6586 4.540482 34.715696 19.023263
2009-07-22 11:50:48 51°34.684 2°43.378 17.6579 4.540482 34.717058 19.058087
2009-07-22 11:51:48 51°34.875 2°43.515 17.6525 4.540482 34.719782 19.058087
2009-07-22 11:52:48 51°35.063 2°43.65 17.6572 4.540378 34.719574 19.092911
2009-07-22 11:53:48 51°35.253 2°43.787 17.6495 4.539963 34.718739 19.092911
2009-07-22 11:54:48 51°35.442 2°43.927 17.649 4.539444 34.716334 19.127735
2009-07-22 11:55:48 51°35.634 2°44.067 17.6482 4.539133 34.71639 19.092911
2009-07-22 11:56:48 51°35.826 2°44.21 17.6431 4.539132 34.715028 19.127735
2009-07-22 11:57:48 51°36.015 2°44.353 17.6417 4.538717 34.714874 19.162559
2009-07-22 11:58:48 51°36.207 2°44.49 17.6371 4.538613 34.713985 19.162559
2009-07-22 11:59:48 51°36.398 2°44.64 17.6435 4.538406 34.71493 19.197383
2009-07-22 12:00:48 51°36.591 2°44.778 17.6377 4.538302 34.71404 19.197383
2009-07-22 12:01:48 51°36.783 2°44.922 17.6348 4.538094 34.714985 19.197383
2009-07-22 12:02:48 51°36.98 2°45.037 17.6374 4.537783 34.71436 19.232207
2009-07-22 12:03:48 51°37.183 2°45.139 17.6337 4.538094 34.714985 19.232207
2009-07-22 12:04:48 51°37.388 2°45.239 17.6349 4.538198 34.715194 19.232207
2009-07-22 12:05:48 51°37.59 2°45.361 17.6384 4.537991 34.715458 19.267031
2009-07-22 12:06:48 51°37.79 2°45.493 17.6324 4.538198 34.715875 19.267031
2009-07-22 12:07:48 51°37.991 2°45.626 17.6329 4.537887 34.717975 19.267031
2009-07-22 12:08:48 51°38.191 2°45.751 17.6344 4.538302 34.718809 19.267031
2009-07-22 12:09:48 51°38.392 2°45.876 17.6341 4.538614 34.722161 19.267031
2009-07-22 12:10:48 51°38.593 2°46.002 17.6406 4.539029 34.722995 19.301855
2009-07-22 12:11:48 51°38.795 2°46.129 17.6476 4.539652 34.724927 19.301855
2009-07-22 12:12:48 51°38.996 2°46.259 17.6591 4.540586 34.726121 19.301855
2009-07-22 12:13:48 51°39.195 2°46.387 17.668 4.541624 34.726162 19.301855
2009-07-22 12:14:48 51°39.396 2°46.511 17.6785 4.542455 34.725105 19.336679
2009-07-22 12:15:48 51°39.596 2°46.631 17.6926 4.543493 34.722425 19.336679
2009-07-22 12:16:48 51°39.797 2°46.755 17.7049 4.54422 34.719122 19.336679
2009-07-22 12:17:48 51°39.998 2°46.879 17.7186 4.545154 34.715558 19.371503
2009-07-22 12:18:48 51°40.199 2°47.006 17.7336 4.5464 34.711945 19.371503
2009-07-22 12:19:48 51°40.402 2°47.135 17.7514 4.547438 34.708597 19.406327
2009-07-22 12:20:48 51°40.602 2°47.271 17.7641 4.548372 34.704365 19.441151
2009-07-22 12:21:48 51°40.787 2°47.46 17.7697 4.549203 34.701964 19.510799
2009-07-22 12:22:48 51°40.97 2°47.66 17.785 4.549618 34.699408 19.545624
2009-07-22 12:23:48 51°41.153 2°47.862 17.7874 4.550344 34.696801 19.580448
2009-07-22 12:24:48 51°41.336 2°48.063 17.7883 4.550344 34.694089 19.615272
2009-07-22 12:25:48 51°41.517 2°48.267 17.7836 4.550033 34.692784 19.615272
2009-07-22 12:26:48 51°41.581 2°48.569 17.7915 4.549929 34.689185 19.650096
2009-07-22 12:27:48 51°41.471 2°48.801 17.7804 4.549825 34.688976 19.68492
2009-07-22 12:28:48 51°41.329 2°48.996 17.7774 4.54941 34.690173 19.719744
2009-07-22 12:29:48 51°41.184 2°49.191 17.7705 4.549202 34.691789 19.68492
2009-07-22 12:30:48 51°41.026 2°49.306 17.7604 4.548683 34.693457 19.68492
2009-07-22 12:31:48 51°40.867 2°49.299 17.7534 4.547853 34.694498 19.68492
2009-07-22 12:32:48 51°40.717 2°49.225 17.7437 4.547126 34.694392 19.650096
2009-07-22 12:33:48 51°40.566 2°49.154 17.7425 4.546295 34.694756 19.650096
2009-07-22 12:34:48 51°40.411 2°49.09 17.7289 4.545776 34.696427 19.650096
2009-07-22 12:35:48 51°40.254 2°49.028 17.7245 4.545257 34.698098 19.615272
2009-07-22 12:36:48 51°40.099 2°48.971 17.7159 4.544842 34.69998 19.615272
2009-07-22 12:37:48 51°39.941 2°48.906 17.7113 4.544219 34.701444 19.615272
2009-07-22 12:38:48 51°39.782 2°48.848 17.7029 4.544012 34.701706 19.615272
2009-07-22 12:39:48 51°39.623 2°48.795 17.6993 4.543493 34.70406 19.615272
2009-07-22 12:40:48 51°39.468 2°48.735 17.6965 4.542974 34.704376 19.615272
2009-07-22 12:41:48 51°39.316 2°48.66 17.6857 4.542558 34.70558 19.650096
2009-07-22 12:42:48 51°39.167 2°48.579 17.6774 4.542247 34.707675 19.615272
2009-07-22 12:43:48 51°39.018 2°48.485 17.6736 4.541624 34.709143 19.615272
2009-07-22 12:44:48 51°38.871 2°48.392 17.6686 4.541313 34.710559 19.650096
2009-07-22 12:45:48 51°38.722 2°48.302 17.6653 4.541105 34.712183 19.615272
2009-07-22 12:46:48 51°38.573 2°48.216 17.6581 4.541001 34.715378 19.615272
2009-07-22 12:47:48 51°38.427 2°48.131 17.6512 4.54069 34.716794 19.615272
2009-07-22 12:48:48 51°38.281 2°48.045 17.6469 4.540067 34.718267 19.615272
2009-07-22 12:49:48 51°38.136 2°47.96 17.6463 4.539755 34.720366 19.650096
2009-07-22 12:50:48 51°37.988 2°47.873 17.6418 4.539548 34.721312 19.68492
2009-07-22 12:51:48 51°37.839 2°47.782 17.6366 4.539444 34.722466 19.68492
2009-07-22 12:52:48 51°37.692 2°47.695 17.6344 4.539133 34.723203 19.719744
2009-07-22 12:53:48 51°37.543 2°47.606 17.6325 4.538925 34.722105 19.719744
2009-07-22 12:54:48 51°37.393 2°47.517 17.6314 4.538821 34.722578 19.719744
2009-07-22 12:55:48 51°37.244 2°47.427 17.6336 4.53851 34.721952 19.68492
2009-07-22 12:56:48 51°37.096 2°47.338 17.6342 4.538406 34.721062 19.719744
2009-07-22 12:57:48 51°36.949 2°47.255 17.6322 4.53851 34.719908 19.754568
2009-07-22 12:58:48 51°36.798 2°47.166 17.6313 4.538302 34.719491 19.754568
2009-07-22 12:59:48 51°36.649 2°47.08 17.6319 4.538302 34.718809 19.719744
2009-07-22 13:00:48 51°36.499 2°46.993 17.6301 4.538198 34.718601 19.719744
2009-07-22 13:01:48 51°36.347 2°46.918 17.6311 4.538094 34.717711 19.68492
2009-07-22 13:02:48 51°36.194 2°46.838 17.6341 4.538094 34.717711 19.68492
2009-07-22 13:03:48 51°36.042 2°46.757 17.6389 4.538406 34.716974 19.650096
2009-07-22 13:04:48 51°35.891 2°46.674 17.641 4.53851 34.714457 19.615272
2009-07-22 13:05:48 51°35.739 2°46.591 17.6433 4.538717 34.714193 19.615272
2009-07-22 13:06:48 51°35.59 2°46.509 17.6491 4.538821 34.713721 19.615272
2009-07-22 13:07:48 51°35.44 2°46.419 17.6514 4.539132 34.711622 19.615272
2009-07-22 13:08:48 51°35.29 2°46.331 17.6548 4.539132 34.70958 19.615272
2009-07-22 13:09:48 51°35.14 2°46.239 17.6578 4.539444 34.708163 19.650096
2009-07-22 13:10:48 51°34.992 2°46.147 17.6672 4.539548 34.70633 19.650096
2009-07-22 13:11:48 51°34.843 2°46.058 17.6699 4.539859 34.704234 19.650096
2009-07-22 13:12:48 51°34.695 2°45.972 17.669 4.539963 34.704443 19.650096
2009-07-22 13:13:48 51°34.546 2°45.883 17.6724 4.540067 34.70261 19.650096
2009-07-22 13:14:48 51°34.398 2°45.804 17.6765 4.540482 34.703445 19.650096
2009-07-22 13:15:48 51°34.247 2°45.724 17.6742 4.540793 34.703391 19.650096
2009-07-22 13:16:48 51°34.096 2°45.644 17.6766 4.540793 34.702711 19.650096
2009-07-22 13:17:48 51°33.947 2°45.566 17.6791 4.540897 34.70224 19.650096
2009-07-22 13:18:48 51°33.798 2°45.487 17.6782 4.541105 34.702657 19.68492
2009-07-22 13:19:48 51°33.648 2°45.417 17.6767 4.541001 34.702448 19.68492
2009-07-22 13:20:48 51°33.496 2°45.346 17.6749 4.540897 34.70224 19.719744
2009-07-22 13:21:48 51°33.344 2°45.276 17.6771 4.540586 34.701613 19.719744
2009-07-22 13:22:48 51°33.193 2°45.204 17.6753 4.540793 34.701351 19.719744
2009-07-22 13:23:48 51°33.042 2°45.135 17.6779 4.540586 34.700253 19.719744
2009-07-22 13:24:48 51°32.89 2°45.064 17.6744 4.540482 34.700044 19.719744
2009-07-22 13:25:48 51°32.74 2°44.995 17.6734 4.540378 34.699155 19.754568
2009-07-22 13:26:48 51°32.589 2°44.925 17.6758 4.54017 34.697377 19.719744
2009-07-22 13:27:48 51°32.437 2°44.856 17.6752 4.539859 34.69607 19.719744
2009-07-22 13:28:48 51°32.287 2°44.79 17.675 4.539755 34.695181 19.719744
2009-07-22 13:29:48 51°32.14 2°44.706 17.6754 4.539547 34.694083 19.754568
2009-07-22 13:30:48 51°31.999 2°44.617 17.6773 4.539444 34.691833 19.754568
2009-07-22 13:31:48 51°31.852 2°44.524 17.6789 4.539547 34.690682 19.719744
2009-07-22 13:32:48 51°31.708 2°44.433 17.6773 4.53934 34.688904 19.754568
2009-07-22 13:33:48 51°31.562 2°44.343 17.6792 4.539236 34.687335 19.789392
2009-07-22 13:34:48 51°31.417 2°44.25 17.6807 4.539236 34.687335 19.824216
2009-07-22 13:35:48 51°31.272 2°44.158 17.6761 4.539028 34.685558 19.928688
2009-07-22 13:36:48 51°31.127 2°44.066 17.6769 4.539132 34.685767 19.928688
2009-07-22 13:37:48 51°30.981 2°43.975 17.6762 4.538717 34.68425 19.963512
2009-07-22 13:38:48 51°30.836 2°43.887 17.6757 4.538509 34.684512 19.963512
2009-07-22 13:39:48 51°30.691 2°43.801 17.6739 4.538509 34.685192 19.963512
2009-07-22 13:40:48 51°30.545 2°43.73 17.6714 4.538509 34.685872 19.963512
2009-07-22 13:41:48 51°30.396 2°43.669 17.6714 4.538509 34.687232 19.963512
2009-07-22 13:42:48 51°30.243 2°43.627 17.6773 4.539028 34.688957 19.963512
2009-07-22 13:43:48 51°30.081 2°43.637 17.6753 4.539444 34.690473 19.998336
2009-07-22 13:44:48 51°29.92 2°43.642 17.6826 4.539859 34.691989 19.998336
2009-07-22 13:45:48 51°29.761 2°43.637 17.6802 4.53934 34.686865 19.998336
2009-07-22 13:46:48 51°29.599 2°43.724 17.6819 4.539859 34.690629 19.963512
2009-07-22 13:47:48 51°29.438 2°43.83 17.684 4.538717 34.679492 19.963512
2009-07-22 13:48:48 51°29.275 2°43.931 17.6887 4.540066 34.686969 19.963512
2009-07-22 13:49:48 51°29.115 2°44.035 17.6945 4.540378 34.685557 19.963512
2009-07-22 13:50:48 51°28.955 2°44.143 17.7015 4.540793 34.685034 19.928688
2009-07-22 13:51:48 51°28.794 2°44.253 17.6989 4.541001 34.683414 19.963512
2009-07-22 13:52:48 51°28.633 2°44.374 17.7039 4.540897 34.682526 19.963512
2009-07-22 13:53:48 51°28.473 2°44.496 17.7076 4.541416 34.682213 19.963512
2009-07-22 13:54:48 51°28.311 2°44.619 17.7069 4.541312 34.681324 19.928688
2009-07-22 13:55:48 51°28.148 2°44.738 17.7132 4.541623 34.679914 19.893864
2009-07-22 13:56:48 51°27.985 2°44.858 17.7221 4.542143 34.678923 19.928688
2009-07-22 13:57:48 51°27.821 2°44.976 17.7398 4.542973 34.677203 19.928688
2009-07-22 13:58:48 51°27.655 2°45.093 17.7491 4.544115 34.674756 19.963512
2009-07-22 13:59:48 51°27.489 2°45.205 17.7585 4.545049 34.673926 19.998336
2009-07-22 14:00:48 51°27.324 2°45.32 17.7718 4.545776 34.672002 19.998336
2009-07-22 14:01:48 51°27.16 2°45.433 17.7844 4.546607 34.670288 20.03316
2009-07-22 14:02:48 51°26.994 2°45.549 17.8086 4.548164 34.668687 20.03316
2009-07-22 14:03:48 51°26.829 2°45.667 17.8407 4.550448 34.665171 20.067984
2009-07-22 14:04:48 51°26.664 2°45.781 17.868 4.553251 34.664065 20.03316
2009-07-22 14:05:48 51°26.501 2°45.896 17.8915 4.555742 34.663013 20.03316
2009-07-22 14:06:48 51°26.338 2°46.01 17.9035 4.557507 34.661849 20.067984
2009-07-22 14:07:48 51°26.174 2°46.121 17.9186 4.558649 34.660781 20.03316
2009-07-22 14:08:48 51°26.012 2°46.232 17.9272 4.559791 34.659713 20.03316
2009-07-22 14:09:48 51°25.848 2°46.343 17.9356 4.560518 34.658483 20.067984
2009-07-22 14:10:48 51°25.686 2°46.456 17.9348 4.560933 34.657299 20.102808
2009-07-22 14:11:48 51°25.521 2°46.563 17.9337 4.561141 34.657719 20.102808
2009-07-22 14:12:48 51°25.357 2°46.679 17.9351 4.561037 34.656835 20.102808
2009-07-22 14:13:48 51°25.192 2°46.79 17.9336 4.561245 34.659277 20.067984
2009-07-22 14:14:48 51°25.027 2°46.904 17.9359 4.561349 34.660836 20.067984
2009-07-22 14:15:48 51°24.86 2°47.016 17.9438 4.561556 34.659906 20.03316
2009-07-22 14:16:48 51°24.693 2°47.127 17.957 4.562179 34.657794 20.067984
2009-07-22 14:17:48 51°24.528 2°47.241 17.9791 4.563321 34.651342 20.172456
2009-07-22 14:18:48 51°24.362 2°47.352 18.0121 4.565086 34.644812 20.346577
2009-07-22 14:19:48 51°24.196 2°47.466 18.0429 4.567058 34.637369 20.485873
2009-07-22 14:20:48 51°24.03 2°47.576 18.0678 4.569135 34.629479 20.659993
2009-07-22 14:21:48 51°23.864 2°47.688 18.0866 4.570796 34.624119 20.729641
2009-07-22 14:22:48 51°23.696 2°47.793 18.0984 4.572146 34.621489 20.799289
2009-07-22 14:23:48 51°23.528 2°47.898 18.1074 4.572872 34.61961 20.799289
2009-07-22 14:24:48 51°23.361 2°48.01 18.1159 4.573599 34.618402 20.729641
2009-07-22 14:25:48 51°23.194 2°48.128 18.1146 4.573807 34.617483 20.694817
2009-07-22 14:26:48 51°23.029 2°48.249 18.1154 4.57391 34.617023 20.729641
2009-07-22 14:27:48 51°22.866 2°48.369 18.1149 4.574118 34.616105 20.764465
2009-07-22 14:28:48 51°22.701 2°48.484 18.1271 4.574118 34.614765 20.764465
2009-07-22 14:29:48 51°22.539 2°48.608 18.1345 4.574741 34.612679 20.729641
2009-07-22 14:30:48 51°22.374 2°48.728 18.155 4.575883 34.61031 20.694817
2009-07-22 14:31:48 51°22.206 2°48.845 18.1717 4.57744 34.609455 20.729641
2009-07-22 14:32:48 51°22.035 2°48.959 18.185 4.570898 34.540682 20.799289
2009-07-22 14:33:48 51°21.865 2°49.084 18.1925 4.579932 34.607825 20.868938
2009-07-22 14:34:48 51°21.695 2°49.21 18.2041 4.580866 34.607049 20.868938
2009-07-22 14:35:48 51°21.526 2°49.336 18.2146 4.582009 34.607363 20.868938
2009-07-22 14:36:48 51°21.357 2°49.464 18.2223 4.582839 34.607713 20.868938
2009-07-22 14:37:48 51°21.19 2°49.591 18.2364 4.583774 34.606272 20.834113
2009-07-22 14:38:48 51°21.023 2°49.719 18.2484 4.585331 34.606764 20.834113
2009-07-22 14:39:48 51°20.858 2°49.847 18.2562 4.586369 34.608205 20.764465
2009-07-22 14:40:48 51°20.694 2°49.98 18.2696 4.587304 34.608101 20.694817
2009-07-22 14:41:48 51°20.53 2°50.108 18.2979 4.589069 34.608351 20.729641
2009-07-22 14:42:48 51°20.366 2°50.235 18.3482 4.592287 34.607557 20.729641
2009-07-22 14:43:48 51°20.202 2°50.36 18.4053 4.597479 34.605458 20.764465
2009-07-22 14:44:48 51°20.036 2°50.481 18.4591 4.602878 34.602478 20.834113
2009-07-22 14:45:48 51°19.87 2°50.598 18.4916 4.606823 34.599886 20.97341
2009-07-22 14:46:48 51°19.702 2°50.713 18.5196 4.609627 34.59896 21.182354
2009-07-22 14:47:48 51°19.533 2°50.826 18.5404 4.612015 34.596535 21.32165
2009-07-22 14:48:48 51°19.364 2°50.938 18.5552 4.613884 34.594383 21.286826
2009-07-22 14:49:48 51°19.194 2°51.054 18.5617 4.615234 34.595807 21.182354
2009-07-22 14:50:48 51°19.027 2°51.172 18.5575 4.615753 34.598186 21.043058
2009-07-22 14:51:48 51°18.861 2°51.288 18.5488 4.615649 34.603266 20.938586
2009-07-22 14:52:48 51°18.694 2°51.404 18.5399 4.615649 34.606573 20.799289
2009-07-22 14:53:48 51°18.527 2°51.52 18.5372 4.614922 34.607742 20.764465
2009-07-22 14:54:48 51°18.361 2°51.635 18.6636 4.614403 34.602716 27.485508
2009-07-22 14:55:48 51°18.194 2°51.749 18.7992 1.783843 12.14628 28.216813
2009-07-22 14:56:48 51°18.026 2°51.86 18.8927 1.537386 10.334585 28.216813
2009-07-22 14:57:48 51°17.854 2°51.936 18.9747 1.939541 13.304046 28.147165
2009-07-22 14:58:48 51°17.68 2°51.997 19.0573 1.717572 11.653776 28.112341
2009-07-22 14:59:48 51°17.506 2°52.067 19.1386 2.013277 13.848957 28.077517
2009-07-22 15:00:48 51°17.333 2°52.152 19.2203 2.014619 13.857194 28.077517
2009-07-22 15:01:48 51°17.164 2°52.264 19.3008 2.262243 15.722235 28.077517
2009-07-22 15:02:48 51°17.002 2°52.4 19.3916 1.875005 12.80467 28.147165
2009-07-22 15:03:48 51°16.845 2°52.556 19.4988 1.780436 12.102738 28.216813
2009-07-22 15:04:48 51°16.688 2°52.711 19.5434 2.173799 15.041532 28.147165
2009-07-22 15:05:48 51°16.527 2°52.864 19.6389 2.039304 14.024699 28.147165
2009-07-22 15:06:48 51°16.364 2°53.007 19.7136 2.131236 14.715201 28.181989
2009-07-22 15:07:48 51°16.201 2°53.154 19.7971 2.127 14.677178 28.181989
2009-07-22 15:08:48 51°16.037 2°53.295 19.87 2.268856 15.743905 28.181989
2009-07-22 15:09:48 51°15.871 2°53.433 19.9601 2.232278 15.466945 28.251637
2009-07-22 15:10:48 51°15.709 2°53.585 20.0215 2.259556 15.661837 28.286461
2009-07-22 15:11:48 51°15.545 2°53.737 20.1022 2.274023 15.773582 28.286461
2009-07-22 15:12:48 51°15.383 2°53.89 20.1379 2.276089 15.787768 28.251637
2009-07-22 15:13:48 51°15.223 2°54.04 20.2342 2.267616 15.715219 28.286461
2009-07-22 15:14:48 51°15.06 2°54.192 20.2914 2.020712 13.854714 28.321285
2009-07-22 15:15:48 51°14.9 2°54.349 20.3414 2.23238 15.441211 28.321285
2009-07-22 15:16:48 51°14.741 2°54.514 20.4351 2.272886 15.742398 28.356109
2009-07-22 15:17:48 51°14.589 2°54.7 20.4872 2.274332 15.751278 28.356109
2009-07-22 15:18:48 51°14.446 2°54.903 20.5375 2.274229 15.74842 28.321285
2009-07-22 15:19:48 51°14.325 2°55.133 20.5671 2.271335 15.722372 28.356109
2009-07-22 15:20:48 51°14.208 2°55.326 20.6443 2.276605 15.758704 28.356109
2009-07-22 15:21:48 51°14.079 2°55.439 20.6982 2.277432 15.761403 28.356109
2009-07-22 15:22:48 51°13.954 2°55.532 20.7375 2.271128 15.707805 28.356109
2009-07-22 15:23:48 51°13.834 2°55.621 20.8048 2.278775 15.760899 28.356109
2009-07-22 15:24:48 51°13.747 2°55.719 20.8547 2.279705 15.763194 28.390933
2009-07-22 15:25:48 51°13.699 2°55.819 20.9297 2.281255 15.771655 28.390933
2009-07-22 15:26:48 51°13.675 2°55.904 20.94 2.281565 15.770444 28.356109
2009-07-22 15:27:48 51°13.663 2°55.951 21.0398 2.282288 15.77295 28.356109